Time;durP1;ratioP1;P1;durP2;ratioP2;P2;SDS_P1;SDS_P2;PMS_P1;PMS_P2;Temp;Humidity;BMP_temperature;BMP_pressure;BME280_temperature;BME280_humidity;BME280_pressure;Samples;Min_cycle;Max_cycle;Signal;HPM_P1;HPM_P2
2022/09/12 00:01:13;;;;;;;6.38;5.18;;;;;;;13.68;75.43;98364.56;5049168;28;20075;-70
2022/09/12 00:03:39;;;;;;;8.50;5.15;;;;;;;13.68;75.31;98370.06;5048944;28;20017;-70
2022/09/12 00:06:24;;;;;;;6.75;5.00;;;;;;;13.70;75.69;98365.06;5047831;28;20024;-71
2022/09/12 00:08:55;;;;;;;9.82;5.38;;;;;;;13.70;75.56;98367.03;5047528;28;20032;-71
2022/09/12 00:11:21;;;;;;;7.60;5.47;;;;;;;13.71;75.56;98363.13;5048719;28;20040;-71
2022/09/12 00:13:47;;;;;;;11.45;5.63;;;;;;;13.70;75.42;98367.03;5048378;28;20021;-71
2022/09/12 00:16:21;;;;;;;8.23;5.97;;;;;;;13.72;75.39;98370.28;5049055;28;20100;-71
2022/09/12 00:18:46;;;;;;;8.43;5.30;;;;;;;13.74;75.74;98373.53;5044618;28;20013;-71
2022/09/12 00:21:13;;;;;;;10.30;6.00;;;;;;;13.75;75.76;98368.81;5048085;28;20024;-70
2022/09/12 00:23:38;;;;;;;8.85;5.70;;;;;;;13.74;75.70;98375.44;5047784;28;20021;-71
2022/09/12 00:26:05;;;;;;;10.20;6.22;;;;;;;13.72;75.85;98381.28;5048565;28;20021;-71
2022/09/12 00:28:33;;;;;;;9.60;6.70;;;;;;;13.73;75.76;98379.34;5047139;28;21600;-71
2022/09/12 00:30:59;;;;;;;8.50;6.03;;;;;;;13.70;75.74;98378.84;5047790;28;20474;-71
2022/09/12 00:33:25;;;;;;;10.65;6.78;;;;;;;13.71;75.73;98382.44;5046779;28;20020;-71
2022/09/12 00:35:54;;;;;;;9.32;6.13;;;;;;;13.70;75.92;98375.28;5048590;28;20469;-71
2022/09/12 00:38:20;;;;;;;10.38;7.43;;;;;;;13.71;75.93;98379.66;5049021;28;20123;-71
2022/09/12 00:40:47;;;;;;;10.18;7.07;;;;;;;13.70;75.82;98373.31;5049350;28;20394;-71
2022/09/12 00:43:34;;;;;;;12.20;7.68;;;;;;;13.69;75.88;98368.94;5049303;28;20024;-71
2022/09/12 00:46:37;;;;;;;12.73;8.13;;;;;;;13.67;75.85;98367.66;5048635;28;20497;-71
2022/09/12 00:49:26;;;;;;;14.68;7.95;;;;;;;13.67;75.74;98365.69;5049601;28;20029;-71
2022/09/12 00:52:04;;;;;;;13.55;8.70;;;;;;;13.68;75.92;98364.56;5048745;28;20040;-71
2022/09/12 00:54:37;;;;;;;16.20;10.48;;;;;;;13.67;75.82;98370.41;5048518;28;20398;-71
2022/09/12 00:57:05;;;;;;;18.70;11.52;;;;;;;13.63;75.74;98366.66;5047069;28;20096;-71
2022/09/12 00:59:40;;;;;;;18.42;11.20;;;;;;;13.64;75.98;98376.56;5046769;28;20025;-71
2022/09/12 01:02:06;;;;;;;22.88;12.32;;;;;;;13.65;75.91;98367.16;5047699;28;20044;-71
2022/09/12 01:04:31;;;;;;;18.65;12.10;;;;;;;13.63;76.10;98378.50;5049012;28;20113;-71
2022/09/12 01:06:57;;;;;;;19.30;11.90;;;;;;;13.60;76.44;98367.31;5043313;28;20452;-70
2022/09/12 01:09:24;;;;;;;17.55;11.35;;;;;;;13.60;76.17;98381.06;5048617;28;20041;-70
2022/09/12 01:11:51;;;;;;;17.75;11.13;;;;;;;13.57;76.04;98379.78;5047934;28;20075;-70
2022/09/12 01:14:18;;;;;;;17.90;11.05;;;;;;;13.54;76.24;98377.66;5049390;28;20032;-70
2022/09/12 01:16:46;;;;;;;17.10;10.95;;;;;;;13.53;76.46;98376.03;5049799;28;20116;-70
2022/09/12 01:19:48;;;;;;;16.23;10.05;;;;;;;13.51;76.66;98379.09;5050503;28;20025;-70
2022/09/12 01:22:45;;;;;;;15.65;10.25;;;;;;;13.49;76.89;98381.34;5050696;28;20024;-70
2022/09/12 01:25:19;;;;;;;15.43;11.38;;;;;;;13.47;76.98;98369.84;5051645;28;20508;-70
2022/09/12 01:28:18;;;;;;;16.10;10.85;;;;;;;13.44;76.92;98375.19;5051105;28;20030;-71
2022/09/12 01:31:15;;;;;;;14.90;10.27;;;;;;;13.45;76.90;98372.09;5053036;28;20126;-71
2022/09/12 01:33:46;;;;;;;14.95;10.52;;;;;;;13.44;77.09;98367.75;5041180;28;20406;-71
2022/09/12 01:36:33;;;;;;;14.13;9.85;;;;;;;13.44;76.88;98376.00;5053233;28;20029;-71
2022/09/12 01:39:04;;;;;;;14.05;9.65;;;;;;;13.45;77.30;98374.06;5052965;28;20470;-71
2022/09/12 01:41:29;;;;;;;14.55;9.20;;;;;;;13.43;77.03;98379.06;5052813;28;20075;-71
2022/09/12 01:44:01;;;;;;;13.45;9.60;;;;;;;13.39;77.23;98374.16;5052401;28;20462;-71
2022/09/12 01:46:38;;;;;;;12.45;8.82;;;;;;;13.37;77.13;98375.63;5052949;28;20114;-70
2022/09/12 01:49:22;;;;;;;13.23;9.20;;;;;;;13.35;77.10;98364.91;5051367;28;20037;-70
2022/09/12 01:51:55;;;;;;;13.52;9.23;;;;;;;13.32;77.21;98373.78;5049401;28;20064;-70
2022/09/12 01:54:40;;;;;;;11.82;8.35;;;;;;;13.28;77.49;98372.00;5053100;28;20025;-71
2022/09/12 01:57:11;;;;;;;13.07;8.50;;;;;;;13.23;77.05;98376.50;5053310;28;20025;-70
2022/09/12 01:59:46;;;;;;;11.95;8.52;;;;;;;13.24;77.17;98367.13;5052418;28;20036;-71
2022/09/12 02:02:14;;;;;;;12.63;7.93;;;;;;;13.24;77.13;98374.59;5051200;28;20052;-71
2022/09/12 02:04:57;;;;;;;12.07;7.35;;;;;;;13.21;77.19;98369.72;5050426;28;20041;-70
2022/09/12 02:07:48;;;;;;;11.07;7.05;;;;;;;13.19;77.02;98380.22;5052854;28;20032;-70
2022/09/12 02:10:19;;;;;;;9.23;6.90;;;;;;;13.21;76.56;98376.00;5048010;28;20033;-71
2022/09/12 02:13:07;;;;;;;10.23;6.95;;;;;;;13.22;77.18;98385.09;5050903;28;20029;-70
2022/09/12 02:15:37;;;;;;;10.20;6.90;;;;;;;13.22;77.18;98383.16;5052014;28;20028;-70
2022/09/12 02:18:05;;;;;;;9.88;6.53;;;;;;;13.23;77.18;98389.47;5051913;28;20037;-69
2022/09/12 02:20:37;;;;;;;10.15;7.22;;;;;;;13.24;77.32;98385.59;5052565;28;20032;-69
2022/09/12 02:23:07;;;;;;;9.85;7.15;;;;;;;13.24;77.16;98386.41;5052531;28;20041;-70
2022/09/12 02:25:36;;;;;;;9.50;6.97;;;;;;;13.24;77.24;98377.34;5052387;28;20037;-69
2022/09/12 02:28:13;;;;;;;9.38;7.10;;;;;;;13.24;77.08;98372.63;5052020;28;20518;-69
2022/09/12 02:30:49;;;;;;;9.65;7.13;;;;;;;13.27;77.27;98370.38;5050197;28;20047;-70
2022/09/12 02:33:25;;;;;;;10.10;6.88;;;;;;;13.27;76.83;98375.88;5050724;28;20604;-70
2022/09/12 02:36:08;;;;;;;10.82;6.60;;;;;;;13.27;77.08;98371.16;5050908;28;20037;-70
2022/09/12 02:38:43;;;;;;;9.20;6.47;;;;;;;13.27;76.97;98370.38;5050326;28;20082;-70
2022/09/12 02:41:09;;;;;;;10.55;6.40;;;;;;;13.24;76.88;98374.59;5052362;28;20033;-69
2022/09/12 02:43:36;;;;;;;8.25;6.40;;;;;;;13.22;76.74;98380.41;5050814;28;20032;-70
2022/09/12 02:46:05;;;;;;;8.18;6.35;;;;;;;13.22;77.15;98385.09;5050435;28;20469;-70
2022/09/12 02:48:35;;;;;;;10.57;7.10;;;;;;;13.22;76.82;98369.38;5051562;28;20063;-70
2022/09/12 02:51:01;;;;;;;8.05;5.75;;;;;;;13.20;76.92;98368.88;5052517;28;20025;-70
2022/09/12 02:53:27;;;;;;;7.07;5.72;;;;;;;13.19;76.89;98378.28;5052511;28;20444;-70
2022/09/12 02:55:53;;;;;;;8.77;6.45;;;;;;;13.18;76.78;98371.13;5052448;28;20025;-70
2022/09/12 02:58:23;;;;;;;8.95;6.80;;;;;;;13.18;76.75;98371.13;5051970;28;20436;-70
2022/09/12 03:01:06;;;;;;;9.25;6.22;;;;;;;13.18;76.66;98378.59;5052289;28;20086;-69
2022/09/12 03:03:41;;;;;;;11.68;6.20;;;;;;;13.19;76.57;98381.03;5050908;28;20520;-70
2022/09/12 03:06:22;;;;;;;9.65;6.38;;;;;;;13.16;76.66;98380.84;5052183;28;20066;-69
2022/09/12 03:09:25;;;;;;;9.75;6.40;;;;;;;13.12;76.63;98383.41;5051519;28;20036;-69
2022/09/12 03:12:00;;;;;;;9.55;6.38;;;;;;;13.13;76.64;98381.47;5042674;28;20048;-70
2022/09/12 03:14:48;;;;;;;11.65;6.80;;;;;;;13.13;76.85;98384.22;5052357;28;20025;-70
2022/09/12 03:17:35;;;;;;;8.13;6.40;;;;;;;13.09;76.75;98375.78;5051451;28;20029;-70
2022/09/12 03:20:06;;;;;;;8.23;6.00;;;;;;;13.08;76.99;98374.16;5051646;28;20459;-70
2022/09/12 03:22:37;;;;;;;9.50;5.97;;;;;;;13.07;76.74;98383.53;5051986;28;20087;-70
2022/09/12 03:25:47;;;;;;;8.95;6.28;;;;;;;13.05;76.93;98386.63;5051196;28;20090;-71
2022/09/12 03:28:18;;;;;;;8.20;5.95;;;;;;;13.05;76.77;98383.88;5051174;28;20029;-70
2022/09/12 03:30:47;;;;;;;7.28;5.38;;;;;;;13.01;76.67;98391.13;5051618;28;20033;-70
2022/09/12 03:33:18;;;;;;;8.87;6.67;;;;;;;12.99;76.60;98392.56;5051528;28;20068;-70
2022/09/12 03:35:45;;;;;;;10.75;6.13;;;;;;;12.99;76.75;98390.63;5051443;28;20366;-70
2022/09/12 03:38:10;;;;;;;8.27;5.53;;;;;;;12.99;76.47;98387.06;5049112;28;20029;-70
2022/09/12 03:40:37;;;;;;;9.20;6.38;;;;;;;13.01;76.77;98390.31;5050251;28;20473;-70
2022/09/12 03:43:04;;;;;;;9.35;5.97;;;;;;;13.02;76.67;98386.44;5047918;28;20085;-70
2022/09/12 03:45:29;;;;;;;9.85;6.15;;;;;;;13.05;76.89;98394.03;5050742;28;20508;-70
2022/09/12 03:47:55;;;;;;;7.88;5.57;;;;;;;13.04;76.77;98398.75;5048892;28;20032;-70
2022/09/12 03:50:21;;;;;;;8.00;5.70;;;;;;;13.05;76.79;98399.56;5051153;28;20025;-70
2022/09/12 03:52:46;;;;;;;9.13;6.07;;;;;;;13.06;76.78;98399.25;5050827;28;20032;-70
2022/09/12 03:55:12;;;;;;;7.90;5.80;;;;;;;13.08;76.89;98396.16;5047729;28;20117;-70
2022/09/12 03:57:37;;;;;;;8.75;6.18;;;;;;;13.06;76.69;98404.75;5047174;28;20416;-70
2022/09/12 04:00:06;;;;;;;9.00;6.15;;;;;;;13.05;76.51;98400.38;5049492;28;20104;-71
2022/09/12 04:02:31;;;;;;;9.93;6.05;;;;;;;13.05;76.82;98405.88;5050282;28;20021;-70
2022/09/12 04:04:57;;;;;;;9.73;5.72;;;;;;;13.06;76.98;98406.69;5050784;28;20544;-70
2022/09/12 04:07:22;;;;;;;7.55;5.32;;;;;;;13.08;76.82;98404.44;5049685;28;20051;-69
2022/09/12 04:09:48;;;;;;;8.57;5.68;;;;;;;13.07;76.37;98405.56;5050459;28;20029;-70
2022/09/12 04:12:13;;;;;;;9.48;5.70;;;;;;;13.06;76.56;98404.75;5050584;28;20067;-70
2022/09/12 04:14:39;;;;;;;11.45;5.95;;;;;;;13.05;76.67;98413.31;5050369;28;20029;-70
2022/09/12 04:17:05;;;;;;;7.90;5.45;;;;;;;13.03;76.66;98405.38;5048482;28;20413;-70
2022/09/12 04:19:30;;;;;;;10.75;5.18;;;;;;;13.00;76.80;98405.22;5049336;28;20017;-70
2022/09/12 04:21:56;;;;;;;7.93;5.40;;;;;;;12.98;76.70;98410.22;5050058;28;20037;-71
2022/09/12 04:24:21;;;;;;;7.90;5.35;;;;;;;12.98;76.87;98408.25;5050118;28;20040;-70
2022/09/12 04:26:47;;;;;;;8.93;5.30;;;;;;;12.98;76.77;98402.75;5049900;28;20025;-71
2022/09/12 04:29:13;;;;;;;7.80;5.22;;;;;;;13.01;76.44;98417.84;5050186;28;20043;-71
2022/09/12 04:31:39;;;;;;;9.55;5.57;;;;;;;13.01;76.35;98413.16;5049841;28;20025;-70
2022/09/12 04:34:04;;;;;;;6.97;5.30;;;;;;;13.01;76.30;98415.91;5050607;28;20032;-70
2022/09/12 04:36:30;;;;;;;10.15;5.55;;;;;;;13.02;76.42;98414.78;5049672;28;20496;-70
2022/09/12 04:38:56;;;;;;;8.07;5.00;;;;;;;13.00;76.26;98421.72;5050260;28;20143;-70
2022/09/12 04:41:30;;;;;;;9.00;5.32;;;;;;;12.96;76.22;98421.53;5046907;28;20029;-70
2022/09/12 04:44:03;;;;;;;7.93;5.40;;;;;;;12.93;76.18;98422.97;5035426;28;20444;-70
2022/09/12 04:46:30;;;;;;;6.85;4.97;;;;;;;12.93;75.98;98427.66;5032861;28;20112;-70
2022/09/12 04:48:56;;;;;;;8.13;5.05;;;;;;;12.92;75.90;98418.59;5034183;28;20034;-69
2022/09/12 04:51:28;;;;;;;7.10;4.82;;;;;;;12.92;76.26;98429.59;5033083;28;20082;-70
2022/09/12 04:53:57;;;;;;;8.18;5.70;;;;;;;12.90;76.13;98420.03;5032940;28;20132;-70
2022/09/12 04:56:22;;;;;;;8.27;5.38;;;;;;;12.86;76.13;98430.84;5031591;28;20044;-70
2022/09/12 04:58:49;;;;;;;8.10;5.70;;;;;;;12.84;76.14;98435.06;5035684;28;20033;-70
2022/09/12 05:01:17;;;;;;;8.75;5.50;;;;;;;12.83;76.22;98436.19;5034265;28;20335;-70
2022/09/12 05:03:43;;;;;;;8.65;5.65;;;;;;;12.85;76.53;98437.47;5045268;28;20592;-70
2022/09/12 05:06:16;;;;;;;8.50;5.50;;;;;;;12.89;76.34;98434.91;5048089;28;20032;-68
2022/09/12 05:08:42;;;;;;;7.50;4.70;;;;;;;12.91;76.49;98438.16;5050012;28;20028;-67
2022/09/12 05:11:14;;;;;;;9.00;5.32;;;;;;;12.89;76.21;98440.41;5046820;28;20385;-68
2022/09/12 05:13:40;;;;;;;7.97;5.45;;;;;;;12.92;76.48;98440.63;5047100;28;20036;-68
2022/09/12 05:16:07;;;;;;;6.68;4.88;;;;;;;12.93;76.36;98446.91;5047837;28;20033;-68
2022/09/12 05:18:34;;;;;;;8.10;5.00;;;;;;;12.92;76.52;98445.28;5049631;28;20427;-68
2022/09/12 05:21:02;;;;;;;6.63;4.57;;;;;;;12.93;76.50;98452.44;5049167;28;20151;-68
2022/09/12 05:23:29;;;;;;;7.90;5.15;;;;;;;12.93;76.32;98452.44;5049738;28;20417;-69
2022/09/12 05:25:56;;;;;;;7.03;4.97;;;;;;;12.94;76.87;98454.06;5049727;28;20613;-68
2022/09/12 05:28:23;;;;;;;7.28;4.78;;;;;;;12.93;76.42;98458.75;5049909;28;20025;-68
2022/09/12 05:31:02;;;;;;;6.80;5.13;;;;;;;12.94;76.64;98465.06;5047605;28;20040;-69
2022/09/12 05:33:27;;;;;;;6.18;4.75;;;;;;;12.96;76.25;98460.06;5049615;28;20401;-69
2022/09/12 05:35:53;;;;;;;7.05;5.10;;;;;;;12.99;76.80;98456.69;5049288;28;20040;-68
2022/09/12 05:38:18;;;;;;;9.43;5.70;;;;;;;13.02;76.61;98469.84;5048943;28;20031;-68
2022/09/12 05:40:44;;;;;;;6.57;4.78;;;;;;;13.02;76.29;98477.28;5046637;28;20112;-68
2022/09/12 05:43:11;;;;;;;8.80;5.80;;;;;;;13.05;76.58;98471.13;5048015;28;20043;-69
2022/09/12 05:45:37;;;;;;;6.20;4.60;;;;;;;13.08;76.70;98468.59;5049757;28;20408;-68
2022/09/12 05:48:03;;;;;;;6.43;4.53;;;;;;;13.11;76.42;98475.41;5047876;28;20107;-68
2022/09/12 05:50:28;;;;;;;9.07;4.80;;;;;;;13.13;76.22;98472.34;5046457;28;20548;-69
2022/09/12 05:52:55;;;;;;;5.85;3.85;;;;;;;13.14;76.42;98468.47;5047582;28;20025;-69
2022/09/12 05:55:21;;;;;;;6.68;4.50;;;;;;;13.16;76.38;98469.78;5049725;28;20136;-68
2022/09/12 05:57:47;;;;;;;6.35;4.30;;;;;;;13.16;76.23;98467.00;5033259;28;20033;-69
2022/09/12 06:00:13;;;;;;;5.38;3.92;;;;;;;13.13;76.06;98472.34;5050491;28;20552;-69
2022/09/12 06:02:39;;;;;;;6.60;4.32;;;;;;;13.15;76.23;98470.91;5049130;28;20037;-69
2022/09/12 06:05:04;;;;;;;13.05;4.57;;;;;;;13.18;76.22;98466.72;5048698;28;20075;-69
2022/09/12 06:07:31;;;;;;;5.70;4.32;;;;;;;13.20;76.11;98470.78;5049420;28;20017;-68
2022/09/12 06:09:58;;;;;;;11.00;6.82;;;;;;;13.21;76.05;98474.34;5046639;28;20455;-69
2022/09/12 06:12:29;;;;;;;7.40;5.20;;;;;;;13.20;75.84;98478.22;5050454;28;20045;-67
2022/09/12 06:14:55;;;;;;;5.50;4.43;;;;;;;13.22;76.16;98467.72;5050560;28;20056;-69
2022/09/12 06:17:21;;;;;;;7.40;4.60;;;;;;;13.25;76.19;98469.81;5053274;28;20024;-69
2022/09/12 06:19:48;;;;;;;8.80;4.25;;;;;;;13.30;76.04;98474.41;5054049;28;20028;-68
2022/09/12 06:22:14;;;;;;;5.82;3.75;;;;;;;13.30;75.99;98475.19;5050241;28;20048;-67
2022/09/12 06:24:39;;;;;;;5.35;3.60;;;;;;;13.33;75.97;98471.03;5051924;28;20047;-68
2022/09/12 06:27:05;;;;;;;7.40;3.90;;;;;;;13.34;76.01;98481.72;5050980;28;20039;-68
2022/09/12 06:29:31;;;;;;;5.22;3.40;;;;;;;13.38;76.01;98482.72;5049368;28;20020;-69
2022/09/12 06:31:57;;;;;;;6.85;3.75;;;;;;;13.44;75.65;98479.88;5051598;28;20044;-69
2022/09/12 06:34:22;;;;;;;6.18;3.58;;;;;;;13.47;75.55;98491.06;5048204;28;20029;-68
2022/09/12 06:36:49;;;;;;;4.95;3.60;;;;;;;13.47;75.50;98495.78;5051822;28;20031;-69
2022/09/12 06:39:19;;;;;;;4.50;3.00;;;;;;;13.47;75.44;98484.75;5051587;28;20028;-68
2022/09/12 06:41:47;;;;;;;5.13;3.50;;;;;;;13.50;75.42;98486.88;5049655;28;20029;-68
2022/09/12 06:44:16;;;;;;;6.30;3.38;;;;;;;13.54;75.65;98485.13;5051399;28;20045;-68
2022/09/12 06:46:41;;;;;;;5.70;4.07;;;;;;;13.53;75.39;98484.28;5051006;28;20025;-69
2022/09/12 06:49:07;;;;;;;5.78;3.70;;;;;;;13.52;75.33;98490.94;5051800;28;20103;-69
2022/09/12 06:51:33;;;;;;;4.00;2.72;;;;;;;13.49;74.84;98488.81;5052525;28;20123;-69
2022/09/12 06:53:59;;;;;;;5.03;3.10;;;;;;;13.46;75.00;98485.88;5053283;28;20103;-69
2022/09/12 06:56:26;;;;;;;7.32;3.75;;;;;;;13.49;74.72;98491.56;5051188;28;20033;-70
2022/09/12 06:58:54;;;;;;;4.57;3.00;;;;;;;13.51;74.75;98486.53;5050001;28;20115;-69
2022/09/12 07:01:25;;;;;;;3.67;3.00;;;;;;;13.53;74.99;98489.81;5050122;28;20121;-69
2022/09/12 07:03:53;;;;;;;4.25;2.85;;;;;;;13.55;74.80;98486.75;5050570;28;20063;-69
2022/09/12 07:06:21;;;;;;;4.43;2.97;;;;;;;13.54;74.57;98493.38;5050932;28;20049;-69
2022/09/12 07:08:47;;;;;;;5.13;2.78;;;;;;;13.57;74.59;98498.28;5053622;28;20082;-69
2022/09/12 07:11:21;;;;;;;4.00;2.95;;;;;;;13.62;74.65;98502.81;5049998;28;20020;-69
2022/09/12 07:13:52;;;;;;;3.42;2.78;;;;;;;13.67;74.36;98500.75;5047162;28;20025;-70
2022/09/12 07:16:18;;;;;;;4.10;2.72;;;;;;;13.74;74.57;98499.47;5047350;28;20108;-69
2022/09/12 07:18:45;;;;;;;4.85;2.97;;;;;;;13.84;74.42;98499.22;5047645;28;20109;-70
2022/09/12 07:21:12;;;;;;;4.50;3.03;;;;;;;13.92;74.50;98506.72;5048113;28;20613;-70
2022/09/12 07:23:39;;;;;;;4.05;3.00;;;;;;;13.99;74.09;98504.31;5050211;28;20039;-69
2022/09/12 07:26:04;;;;;;;7.07;3.00;;;;;;;14.02;74.03;98500.09;5049950;28;20033;-69
2022/09/12 07:28:32;;;;;;;4.68;2.30;;;;;;;14.05;74.05;98504.19;5050285;28;20032;-69
2022/09/12 07:31:03;;;;;;;3.40;2.65;;;;;;;14.08;73.88;98506.28;5052211;28;20093;-71
2022/09/12 07:33:28;;;;;;;3.53;2.47;;;;;;;14.12;73.46;98502.59;5051428;28;20107;-70
2022/09/12 07:35:54;;;;;;;4.53;2.63;;;;;;;14.18;73.36;98511.50;5052587;28;20112;-70
2022/09/12 07:38:22;;;;;;;2.65;2.10;;;;;;;14.23;73.35;98516.88;5050086;28;20036;-70
2022/09/12 07:40:47;;;;;;;3.10;2.28;;;;;;;14.27;73.21;98512.38;5048651;28;20548;-70
2022/09/12 07:43:13;;;;;;;5.65;2.22;;;;;;;14.31;73.05;98515.28;5050730;28;20108;-70
2022/09/12 07:45:41;;;;;;;3.47;1.98;;;;;;;14.35;72.62;98521.00;5048595;28;20489;-69
2022/09/12 07:48:07;;;;;;;3.25;2.00;;;;;;;14.36;72.21;98520.66;5050784;28;20037;-71
2022/09/12 07:50:33;;;;;;;3.88;2.20;;;;;;;14.34;71.97;98520.16;5050440;28;20029;-69
2022/09/12 07:52:59;;;;;;;3.15;1.90;;;;;;;14.40;71.98;98520.84;5049206;28;20028;-71
2022/09/12 07:55:25;;;;;;;3.20;1.75;;;;;;;14.44;71.99;98522.63;5050588;28;20025;-70
2022/09/12 07:57:51;;;;;;;2.42;2.03;;;;;;;14.46;71.46;98525.09;5049604;28;20097;-70
2022/09/12 08:00:17;;;;;;;4.03;1.90;;;;;;;14.51;71.45;98527.69;5049995;28;20108;-69
2022/09/12 08:02:43;;;;;;;4.88;2.40;;;;;;;14.56;71.39;98523.97;5046282;28;20104;-70
2022/09/12 08:05:09;;;;;;;4.78;2.17;;;;;;;14.59;71.25;98526.09;5050493;28;21400;-70
2022/09/12 08:07:34;;;;;;;3.65;2.25;;;;;;;14.63;71.47;98516.03;5047262;28;20433;-69
2022/09/12 08:10:00;;;;;;;3.22;1.90;;;;;;;14.69;70.60;98527.75;5042555;28;20549;-69
2022/09/12 08:12:30;;;;;;;3.67;1.80;;;;;;;14.74;70.83;98522.09;5039203;28;20045;-69
2022/09/12 08:14:55;;;;;;;3.22;1.85;;;;;;;14.79;70.85;98521.94;5036106;28;20126;-69
2022/09/12 08:17:21;;;;;;;2.70;2.13;;;;;;;14.83;70.56;98522.09;5038313;28;20424;-70
2022/09/12 08:19:47;;;;;;;3.35;1.80;;;;;;;14.83;69.63;98533.97;5039043;28;20106;-70
2022/09/12 08:22:12;;;;;;;2.50;1.65;;;;;;;14.85;69.80;98536.38;5049094;28;20605;-70
2022/09/12 08:24:38;;;;;;;2.72;1.73;;;;;;;14.87;69.15;98529.44;5046507;28;20025;-69
2022/09/12 08:27:05;;;;;;;4.85;1.85;;;;;;;14.89;69.12;98524.38;5049868;28;20017;-69
2022/09/12 08:29:30;;;;;;;3.13;2.00;;;;;;;14.92;69.24;98525.69;5049297;28;20052;-69
2022/09/12 08:31:55;;;;;;;3.25;1.92;;;;;;;15.00;68.98;98522.13;5049371;28;20145;-69
2022/09/12 08:34:21;;;;;;;2.80;1.60;;;;;;;15.07;68.54;98529.91;5049130;28;20052;-70
2022/09/12 08:36:47;;;;;;;3.88;1.75;;;;;;;15.12;68.45;98532.50;5050878;28;20032;-70
2022/09/12 08:39:15;;;;;;;3.45;1.70;;;;;;;15.18;68.49;98527.63;5049282;28;20092;-71
2022/09/12 08:41:44;;;;;;;3.55;1.80;;;;;;;15.23;67.80;98529.44;5048312;28;20473;-70
2022/09/12 08:44:22;;;;;;;2.88;1.45;;;;;;;15.25;67.69;98527.97;5048895;28;20480;-69
2022/09/12 08:47:13;;;;;;;2.80;1.70;;;;;;;15.32;68.86;98530.22;5051226;28;20040;-70
2022/09/12 09:07:33;;;;;;;2.88;1.50;;;;;;;15.26;65.83;98523.25;5538767;23;20054;-68
2022/09/12 09:10:44;;;;;;;2.90;1.60;;;;;;;15.31;65.98;98514.78;5007806;28;20034;-67
2022/09/12 09:16:29;;;;;;;3.20;1.50;;;;;;;15.42;65.57;98518.84;5016468;28;20411;-68
2022/09/12 09:18:59;;;;;;;2.92;1.80;;;;;;;15.50;63.74;98517.19;5008586;28;20042;-70
2022/09/12 09:21:31;;;;;;;2.63;1.88;;;;;;;15.55;63.53;98511.50;5008120;28;20030;-68
2022/09/12 09:24:09;;;;;;;2.92;1.38;;;;;;;15.64;63.48;98525.31;5015866;28;20030;-68
2022/09/12 09:26:40;;;;;;;3.40;1.50;;;;;;;15.73;62.87;98514.22;5014039;28;20034;-68
2022/09/12 09:29:18;;;;;;;2.80;1.80;;;;;;;15.80;62.82;98522.00;5005710;28;20037;-68
2022/09/12 09:31:48;;;;;;;2.97;1.70;;;;;;;15.85;62.66;98522.66;5018306;28;20044;-68
2022/09/12 09:34:27;;;;;;;2.95;1.70;;;;;;;15.88;63.11;98522.03;5008897;28;20105;-70
2022/09/12 09:37:15;;;;;;;1.73;1.40;;;;;;;15.93;62.14;98518.28;5009014;28;20033;-68
2022/09/12 09:39:41;;;;;;;3.95;1.67;;;;;;;15.99;62.45;98519.72;5008969;28;20057;-69
2022/09/12 09:42:42;;;;;;;2.65;1.50;;;;;;;16.05;61.48;98515.63;5006493;28;20531;-67
2022/09/12 09:45:19;;;;;;;3.03;1.60;;;;;;;16.09;61.57;98512.22;5002485;28;20042;-68
2022/09/12 09:47:53;;;;;;;2.03;1.45;;;;;;;16.16;61.30;98507.78;5009429;28;20033;-68
2022/09/12 09:50:19;;;;;;;2.85;1.40;;;;;;;16.26;61.30;98523.19;5011408;28;20029;-67
2022/09/12 09:52:46;;;;;;;7.45;4.28;;;;;;;16.25;60.66;98513.25;5011232;28;20084;-68
2022/09/12 09:55:19;;;;;;;4.55;3.10;;;;;;;16.20;61.44;98521.75;5015750;28;20057;-68
2022/09/12 09:57:46;;;;;;;2.60;1.55;;;;;;;16.18;60.52;98510.19;5010860;28;20117;-68
2022/09/12 10:00:30;;;;;;;2.95;1.40;;;;;;;16.19;60.81;98512.63;5016512;28;20075;-68
2022/09/12 10:03:28;;;;;;;4.75;1.60;;;;;;;16.22;60.75;98500.09;5008836;28;20566;-69
2022/09/12 10:05:58;;;;;;;2.17;1.30;;;;;;;16.30;59.03;98512.28;5026372;28;20033;-68
2022/09/12 10:08:27;;;;;;;2.65;1.45;;;;;;;16.38;58.87;98505.84;5009653;28;20121;-68
2022/09/12 10:11:02;;;;;;;3.38;1.67;;;;;;;16.48;59.25;98501.91;5022505;28;20033;-68
2022/09/12 10:13:36;;;;;;;4.50;1.50;;;;;;;16.62;59.32;98501.66;5017501;28;20033;-69
2022/09/12 10:16:05;;;;;;;2.90;1.48;;;;;;;16.70;58.67;98499.97;5017395;28;20029;-68
2022/09/12 10:18:51;;;;;;;3.20;1.50;;;;;;;16.76;58.66;98504.19;5016230;28;20480;-68
2022/09/12 10:21:38;;;;;;;2.55;1.40;;;;;;;16.84;58.60;98500.53;5016414;28;20026;-68
2022/09/12 10:24:25;;;;;;;2.30;1.60;;;;;;;16.91;58.83;98506.31;5011644;28;20421;-68
2022/09/12 10:26:55;;;;;;;1.60;1.30;;;;;;;16.99;58.21;98507.47;5012931;28;20532;-68
2022/09/12 10:29:22;;;;;;;1.70;1.50;;;;;;;17.05;59.02;98506.13;5014598;28;20060;-69
2022/09/12 10:31:54;;;;;;;3.33;1.60;;;;;;;17.09;58.97;98509.84;5018643;28;20113;-69
2022/09/12 10:34:36;;;;;;;3.28;1.70;;;;;;;17.10;58.37;98507.84;5008886;28;20379;-69
2022/09/12 10:37:07;;;;;;;3.08;1.38;;;;;;;17.03;58.10;98504.81;5009936;28;20034;-68
2022/09/12 10:39:35;;;;;;;2.55;1.45;;;;;;;16.96;58.27;98505.38;5020090;28;20029;-69
2022/09/12 10:42:02;;;;;;;2.55;1.38;;;;;;;16.95;58.56;98509.25;5030149;28;20808;-69
2022/09/12 10:44:30;;;;;;;3.17;1.77;;;;;;;17.01;58.85;98515.41;5030111;28;20111;-69
2022/09/12 10:46:57;;;;;;;4.65;2.72;;;;;;;17.05;58.72;98511.66;5026204;28;20068;-69
2022/09/12 10:49:26;;;;;;;2.78;1.90;;;;;;;17.09;58.28;98504.28;5030741;28;20563;-70
2022/09/12 10:51:53;;;;;;;4.28;1.70;;;;;;;17.10;58.41;98500.38;5029926;28;20112;-68
2022/09/12 10:54:21;;;;;;;3.78;1.52;;;;;;;17.18;58.53;98498.66;5029997;28;20045;-68
2022/09/12 10:56:55;;;;;;;2.60;1.70;;;;;;;17.23;57.54;98503.19;5031945;28;20399;-68
2022/09/12 10:59:36;;;;;;;3.10;1.50;;;;;;;17.25;58.23;98501.69;5021862;28;20109;-68
2022/09/12 11:02:26;;;;;;;3.83;1.50;;;;;;;17.31;58.32;98501.50;5012643;28;20037;-70
2022/09/12 11:04:57;;;;;;;4.03;1.42;;;;;;;17.36;58.10;98507.63;5031862;28;20032;-69
2022/09/12 11:07:47;;;;;;;3.40;1.35;;;;;;;17.41;58.53;98510.19;5030540;28;20584;-70
2022/09/12 11:10:31;;;;;;;2.33;1.70;;;;;;;17.53;58.19;98503.06;5018647;28;20381;-70
2022/09/12 11:13:21;;;;;;;2.85;1.70;;;;;;;17.65;58.08;98513.41;5011606;28;20084;-69
2022/09/12 11:16:01;;;;;;;3.22;1.77;;;;;;;17.69;58.00;98506.00;5016295;28;20018;-69
2022/09/12 11:19:02;;;;;;;2.45;1.55;;;;;;;17.73;57.58;98515.25;5012163;28;20030;-69
2022/09/12 11:21:55;;;;;;;2.22;1.60;;;;;;;17.79;58.26;98513.88;5011467;28;20034;-69
2022/09/12 11:24:23;;;;;;;2.85;1.52;;;;;;;17.76;57.66;98505.44;5012360;28;20037;-70
2022/09/12 11:27:11;;;;;;;3.00;1.88;;;;;;;17.74;57.69;98511.31;5010543;28;20040;-69
2022/09/12 11:29:53;;;;;;;4.53;1.70;;;;;;;17.75;57.98;98503.81;5012372;28;20030;-70
2022/09/12 11:32:55;;;;;;;3.50;1.60;;;;;;;17.76;57.68;98509.00;5009789;28;20037;-69
2022/09/12 11:35:26;;;;;;;3.63;1.70;;;;;;;17.75;57.66;98498.28;5009509;28;20029;-68
2022/09/12 11:38:09;;;;;;;2.42;1.55;;;;;;;17.78;57.50;98506.72;5011718;28;20806;-69
2022/09/12 11:40:44;;;;;;;3.47;1.40;;;;;;;17.81;57.70;98502.44;5011999;28;20045;-69
2022/09/12 11:43:36;;;;;;;4.38;1.70;;;;;;;17.84;57.57;98510.09;5011036;28;20401;-69
2022/09/12 11:46:22;;;;;;;3.80;1.73;;;;;;;17.84;57.78;98512.88;5011517;28;20507;-69
2022/09/12 11:48:51;;;;;;;2.45;1.50;;;;;;;17.93;57.97;98510.78;5011332;28;20371;-69
2022/09/12 11:51:26;;;;;;;3.35;1.60;;;;;;;18.04;57.92;98519.53;5010787;28;20111;-68
2022/09/12 11:54:22;;;;;;;5.15;2.05;;;;;;;18.08;57.41;98512.13;5010844;28;20109;-68
2022/09/12 11:56:53;;;;;;;4.07;1.83;;;;;;;18.18;57.12;98519.19;5011573;28;20486;-68
2022/09/12 11:59:31;;;;;;;1.90;1.60;;;;;;;18.32;57.45;98516.06;5031158;28;20078;-68
2022/09/12 12:01:58;;;;;;;4.25;1.40;;;;;;;18.41;57.20;98519.53;5026514;28;20401;-68
2022/09/12 12:04:40;;;;;;;3.88;1.60;;;;;;;18.42;57.13;98512.81;5011084;28;20018;-68
2022/09/12 12:07:09;;;;;;;2.47;1.70;;;;;;;18.41;57.18;98525.09;5011290;28;20064;-68
2022/09/12 12:09:45;;;;;;;2.55;1.55;;;;;;;18.39;56.62;98518.25;5011298;28;20065;-69
2022/09/12 12:12:16;;;;;;;4.72;1.60;;;;;;;18.33;56.21;98516.88;5010115;28;20492;-69
2022/09/12 12:14:44;;;;;;;2.47;1.60;;;;;;;18.27;56.54;98519.06;5011042;28;20030;-69